createdAt,value
2019-04-25T00:00:43.182Z,17.40
2019-04-25T00:01:43.971Z,17.10
2019-04-25T00:02:43.985Z,16.60
2019-04-25T00:03:43.676Z,17.00
2019-04-25T00:04:43.470Z,15.40
2019-04-25T00:05:43.584Z,16.50
2019-04-25T00:06:43.942Z,16.80
2019-04-25T00:07:43.825Z,16.50
2019-04-25T00:08:44.039Z,16.20
2019-04-25T00:09:43.978Z,16.60
2019-04-25T00:10:43.799Z,16.70
2019-04-25T00:11:43.654Z,17.00
2019-04-25T00:12:43.589Z,16.60
2019-04-25T00:13:44.008Z,16.50
2019-04-25T00:14:43.723Z,16.90
2019-04-25T00:15:44.891Z,16.10
2019-04-25T00:16:44.034Z,16.20
2019-04-25T00:17:43.328Z,17.40
2019-04-25T00:18:43.104Z,16.40
2019-04-25T00:19:43.330Z,16.90
2019-04-25T00:20:43.609Z,17.30
2019-04-25T00:21:43.353Z,16.20
2019-04-25T00:22:43.671Z,17.00
2019-04-25T00:23:43.698Z,17.00
2019-04-25T00:24:43.310Z,17.40
2019-04-25T00:25:45.852Z,16.40
2019-04-25T00:26:44.102Z,17.90
2019-04-25T00:27:43.574Z,17.10
2019-04-25T00:28:44.355Z,17.00
2019-04-25T00:29:43.904Z,16.50
2019-04-25T00:30:44.414Z,17.50
2019-04-25T00:31:43.714Z,16.70
2019-04-25T00:32:44.093Z,16.80
2019-04-25T00:33:44.200Z,18.20
2019-04-25T00:34:44.242Z,16.90
2019-04-25T00:35:44.579Z,17.10
2019-04-25T00:36:43.493Z,17.90
2019-04-25T00:37:44.327Z,16.90
2019-04-25T00:38:45.476Z,16.90
2019-04-25T00:39:44.879Z,17.70
2019-04-25T00:40:43.510Z,16.30
2019-04-25T00:41:44.995Z,16.10
2019-04-25T00:42:43.601Z,17.00
2019-04-25T00:43:44.001Z,17.20
2019-04-25T00:44:44.585Z,17.20
2019-04-25T00:45:44.314Z,17.40
2019-04-25T00:46:46.354Z,17.80
2019-04-25T00:47:44.606Z,17.60
2019-04-25T00:48:43.441Z,17.80
2019-04-25T00:49:44.037Z,18.20
2019-04-25T00:50:43.328Z,18.20
2019-04-25T00:51:43.456Z,17.40
2019-04-25T00:52:43.599Z,17.70
2019-04-25T00:53:43.422Z,18.80
2019-04-25T00:54:43.149Z,18.80
2019-04-25T00:55:43.124Z,19.00
2019-04-25T00:56:45.642Z,18.40
2019-04-25T00:57:43.508Z,18.50
2019-04-25T00:58:43.949Z,18.20
2019-04-25T00:59:43.915Z,19.20
2019-04-25T01:00:43.347Z,19.30
2019-04-25T01:01:44.208Z,19.40
2019-04-25T01:02:44.023Z,19.30
2019-04-25T01:03:43.492Z,19.40
2019-04-25T01:04:43.725Z,18.80
2019-04-25T01:05:43.385Z,19.50
2019-04-25T01:06:42.281Z,20.20
2019-04-25T01:07:42.331Z,19.90
2019-04-25T01:08:42.253Z,19.70
2019-04-25T01:09:42.427Z,19.40
2019-04-25T01:10:42.234Z,19.70
2019-04-25T01:11:42.496Z,19.70
2019-04-25T01:12:42.209Z,19.40
2019-04-25T01:13:42.334Z,19.70
2019-04-25T01:14:42.187Z,19.70
2019-04-25T01:15:42.559Z,19.80
2019-04-25T01:16:42.173Z,19.90
2019-04-25T01:17:42.156Z,19.50
2019-04-25T01:18:50.956Z,19.90
2019-04-25T01:20:24.026Z,18.70
2019-04-25T01:21:25.262Z,19.00
2019-04-25T01:22:23.767Z,19.80
2019-04-25T01:23:23.800Z,19.30
2019-04-25T01:24:24.102Z,19.00
2019-04-25T01:25:23.729Z,19.70
2019-04-25T01:26:24.029Z,19.20
2019-04-25T01:27:33.301Z,19.90
2019-04-25T01:29:05.883Z,20.40
2019-04-25T01:30:06.155Z,20.00
2019-04-25T01:31:05.869Z,19.10
2019-04-25T01:32:05.826Z,19.30
2019-04-25T01:33:05.810Z,19.50
2019-04-25T01:34:05.809Z,19.90
2019-04-25T01:35:05.792Z,20.30
2019-04-25T01:36:05.807Z,20.40
2019-04-25T01:37:05.765Z,19.90
2019-04-25T01:38:05.759Z,20.70
2019-04-25T01:39:05.744Z,19.70
2019-04-25T01:40:05.740Z,20.40
2019-04-25T01:41:05.732Z,19.20
2019-04-25T01:42:05.733Z,19.70
2019-04-25T01:43:05.698Z,19.90
2019-04-25T01:44:05.769Z,19.50
2019-04-25T01:45:05.683Z,20.10
2019-04-25T01:46:05.668Z,19.70
2019-04-25T01:47:05.672Z,19.80
2019-04-25T01:48:05.683Z,19.90
2019-04-25T01:49:05.640Z,19.20
2019-04-25T01:50:05.625Z,18.80
2019-04-25T01:51:05.621Z,20.00
2019-04-25T01:52:05.607Z,19.10
2019-04-25T01:53:05.616Z,20.50
2019-04-25T01:54:05.609Z,18.90
2019-04-25T01:55:05.670Z,19.10
2019-04-25T01:56:07.774Z,18.90
2019-04-25T01:57:05.566Z,19.80
2019-04-25T01:58:05.562Z,18.40
2019-04-25T01:59:05.561Z,18.70
2019-04-25T02:00:05.540Z,19.00
2019-04-25T02:01:05.525Z,19.20
2019-04-25T02:02:06.744Z,19.10
2019-04-25T02:03:05.523Z,19.60
2019-04-25T02:04:05.513Z,19.50
2019-04-25T02:05:05.506Z,18.60
2019-04-25T02:06:05.550Z,19.00
2019-04-25T02:07:05.556Z,18.60
2019-04-25T02:08:06.920Z,19.10
2019-04-25T02:09:14.219Z,18.10
2019-04-25T02:10:47.610Z,18.40
2019-04-25T02:11:56.827Z,18.30
2019-04-25T02:13:29.834Z,19.00
2019-04-25T02:14:29.810Z,18.60
2019-04-25T02:15:29.790Z,18.30
2019-04-25T02:16:29.828Z,18.80
2019-04-25T02:17:29.762Z,18.40
2019-04-25T02:18:29.774Z,18.10
2019-04-25T02:19:36.892Z,19.50
2019-04-25T02:21:11.399Z,17.70
2019-04-25T02:22:11.376Z,18.10
2019-04-25T02:23:55.416Z,17.80
2019-04-25T02:24:54.968Z,18.40
2019-04-25T02:26:06.753Z,19.90
2019-04-25T02:26:55.246Z,18.90
2019-04-25T02:27:55.051Z,19.00
2019-04-25T02:28:55.190Z,18.70
2019-04-25T02:29:55.196Z,19.80
2019-04-25T02:30:57.357Z,20.70
2019-04-25T02:31:58.498Z,19.30
2019-04-25T02:32:58.131Z,19.80
2019-04-25T02:34:01.163Z,20.20
2019-04-25T02:35:35.571Z,19.40
2019-04-25T02:36:35.566Z,20.10
2019-04-25T02:37:35.539Z,19.40
2019-04-25T02:38:35.526Z,20.40
2019-04-25T02:39:37.354Z,20.30
2019-04-25T02:40:35.500Z,21.00
2019-04-25T02:41:35.499Z,20.90
2019-04-25T02:42:35.478Z,21.00
2019-04-25T02:43:35.465Z,21.00
2019-04-25T02:44:35.456Z,20.30
2019-04-25T02:45:35.444Z,21.70
2019-04-25T02:46:37.282Z,20.20
2019-04-25T02:47:35.431Z,21.00
2019-04-25T02:48:35.415Z,21.60
2019-04-25T02:49:38.893Z,21.40
2019-04-25T02:50:35.385Z,20.70
2019-04-25T02:51:35.377Z,22.10
2019-04-25T02:52:35.367Z,20.00
2019-04-25T02:53:37.409Z,21.80
2019-04-25T02:54:35.342Z,22.20
2019-04-25T02:55:37.571Z,22.00
2019-04-25T02:56:38.684Z,21.80
2019-04-25T02:57:35.310Z,21.30
2019-04-25T02:58:35.302Z,22.00
2019-04-25T02:59:36.994Z,22.10
2019-04-25T03:00:51.648Z,22.30
2019-04-25T03:01:36.266Z,22.40
2019-04-25T03:02:36.999Z,21.20
2019-04-25T03:03:35.252Z,19.90
2019-04-25T03:04:35.246Z,21.50
2019-04-25T03:05:35.673Z,21.70
2019-04-25T03:06:35.326Z,21.90
2019-04-25T03:07:35.199Z,23.20
2019-04-25T03:08:35.556Z,22.10
2019-04-25T03:09:35.421Z,21.50
2019-04-25T03:10:35.165Z,22.20
2019-04-25T03:11:35.167Z,21.20
2019-04-25T03:12:36.705Z,23.50
2019-04-25T03:13:35.132Z,22.30
2019-04-25T03:14:35.471Z,22.00
2019-04-25T03:15:36.589Z,21.60
2019-04-25T03:16:35.098Z,22.30
2019-04-25T03:17:35.087Z,21.40
2019-04-25T03:18:35.076Z,21.90
2019-04-25T03:19:35.070Z,21.40
2019-04-25T03:20:35.556Z,19.80
2019-04-25T03:21:35.444Z,22.00
2019-04-25T03:22:35.034Z,21.50
2019-04-25T03:23:35.461Z,21.50
2019-04-25T03:24:35.245Z,22.30
2019-04-25T03:25:35.006Z,21.70
2019-04-25T03:26:40.394Z,20.80
2019-04-25T03:27:35.976Z,19.80
2019-04-25T03:28:34.968Z,20.50
2019-04-25T03:29:34.950Z,19.90
2019-04-25T03:30:35.628Z,19.20
2019-04-25T03:31:35.167Z,18.10
2019-04-25T03:32:35.518Z,18.30
2019-04-25T03:33:37.805Z,17.50
2019-04-25T03:34:35.278Z,16.20
2019-04-25T03:35:34.890Z,17.50
2019-04-25T03:36:34.880Z,15.50
2019-04-25T03:37:35.217Z,15.20
2019-04-25T03:38:34.862Z,14.40
2019-04-25T03:39:34.848Z,14.30
2019-04-25T03:40:34.838Z,14.00
2019-04-25T03:41:34.818Z,13.80
2019-04-25T03:42:34.824Z,13.90
2019-04-25T03:43:34.797Z,13.40
2019-04-25T03:44:34.783Z,13.90
2019-04-25T03:45:34.774Z,13.60
2019-04-25T03:46:34.765Z,13.50
2019-04-25T03:47:34.758Z,12.00
2019-04-25T03:48:36.840Z,11.80
2019-04-25T03:49:34.736Z,11.90
2019-04-25T03:50:34.718Z,10.40
2019-04-25T03:51:34.711Z,12.00
2019-04-25T03:52:34.913Z,11.60
2019-04-25T03:53:34.691Z,12.00
2019-04-25T03:54:34.680Z,10.80
2019-04-25T03:55:35.916Z,10.50
2019-04-25T03:56:34.652Z,10.20
2019-04-25T03:57:34.647Z,10.50
2019-04-25T03:58:34.636Z,10.70
2019-04-25T03:59:34.652Z,10.50
2019-04-25T04:00:36.448Z,10.10
2019-04-25T04:01:34.610Z,10.10
2019-04-25T04:02:34.595Z,10.20
2019-04-25T04:03:34.578Z,8.90
2019-04-25T04:04:34.572Z,9.10
2019-04-25T04:05:41.696Z,8.50
2019-04-25T04:07:16.711Z,8.10
2019-04-25T04:08:24.384Z,7.70
2019-04-25T04:09:24.178Z,8.40
2019-04-25T04:10:58.349Z,8.70
2019-04-25T04:11:58.314Z,7.50
2019-04-25T04:13:40.432Z,7.40
2019-04-25T04:14:39.961Z,7.90
2019-04-25T04:16:23.172Z,8.30
2019-04-25T04:17:21.597Z,8.10
2019-04-25T04:19:04.912Z,9.10
2019-04-25T04:20:03.938Z,9.20
2019-04-25T04:21:45.876Z,9.70
2019-04-25T04:22:45.860Z,8.80
2019-04-25T04:23:45.864Z,9.10
2019-04-25T04:24:45.846Z,8.80
2019-04-25T04:25:45.835Z,8.80
2019-04-25T04:26:45.818Z,8.50
2019-04-25T04:27:45.810Z,9.90
2019-04-25T04:28:45.798Z,9.70
2019-04-25T04:29:45.789Z,9.10
2019-04-25T04:30:45.775Z,8.70
2019-04-25T04:31:45.771Z,9.10
2019-04-25T04:32:45.758Z,8.70
2019-04-25T04:33:45.771Z,9.90
2019-04-25T04:34:45.748Z,8.80
2019-04-25T04:35:45.722Z,8.90
2019-04-25T04:36:46.647Z,9.60
2019-04-25T04:37:45.704Z,9.00
2019-04-25T04:38:45.706Z,8.60
2019-04-25T04:39:45.676Z,8.80
2019-04-25T04:40:45.677Z,8.80
2019-04-25T04:41:45.659Z,8.70
2019-04-25T04:42:45.659Z,9.60
2019-04-25T04:43:45.644Z,9.90
2019-04-25T04:44:45.623Z,9.60
2019-04-25T04:45:45.804Z,10.30
2019-04-25T04:46:45.611Z,9.90
2019-04-25T04:47:45.591Z,9.70
2019-04-25T04:48:45.580Z,11.10
2019-04-25T04:49:45.570Z,11.20
2019-04-25T04:50:45.553Z,9.90
2019-04-25T04:51:45.551Z,10.70
2019-04-25T04:52:45.538Z,10.50
2019-04-25T04:53:45.527Z,10.30
2019-04-25T04:54:45.513Z,10.00
2019-04-25T04:55:45.500Z,9.80
2019-04-25T04:56:45.497Z,9.20
2019-04-25T04:57:45.485Z,9.20
2019-04-25T04:58:45.467Z,9.20
2019-04-25T04:59:45.466Z,8.10
2019-04-25T05:00:45.449Z,8.20
2019-04-25T05:01:45.445Z,8.50
2019-04-25T05:02:45.432Z,7.90
2019-04-25T05:03:45.423Z,7.90
2019-04-25T05:04:45.407Z,7.60
2019-04-25T05:05:45.403Z,7.30
2019-04-25T05:06:45.392Z,6.90
2019-04-25T05:07:45.373Z,6.70
2019-04-25T05:08:45.367Z,6.70
2019-04-25T05:09:45.364Z,5.90
2019-04-25T05:10:45.338Z,5.50
2019-04-25T05:11:45.336Z,5.20
2019-04-25T05:12:45.323Z,5.40
2019-04-25T05:13:45.310Z,5.20
2019-04-25T05:14:45.304Z,4.80
2019-04-25T05:15:45.283Z,5.10
2019-04-25T05:16:45.277Z,4.40
2019-04-25T05:17:45.267Z,5.30
2019-04-25T05:18:45.261Z,4.80
2019-04-25T05:19:45.255Z,4.90
2019-04-25T05:20:45.237Z,4.70
2019-04-25T05:21:45.643Z,4.30
2019-04-25T05:22:45.230Z,4.20
2019-04-25T05:23:45.205Z,4.70
2019-04-25T05:24:45.198Z,5.20
2019-04-25T05:25:45.180Z,4.20
2019-04-25T05:26:45.170Z,4.50
2019-04-25T05:27:57.842Z,4.00
2019-04-25T05:28:46.149Z,3.90
2019-04-25T05:29:45.137Z,4.20
2019-04-25T05:30:45.135Z,4.20
2019-04-25T05:31:45.577Z,3.50
2019-04-25T05:32:45.170Z,4.10
2019-04-25T05:33:45.095Z,4.40
2019-04-25T05:34:46.180Z,3.90
2019-04-25T05:35:45.073Z,3.60
2019-04-25T05:36:45.079Z,3.50
2019-04-25T05:37:45.046Z,4.00
2019-04-25T05:38:45.192Z,3.80
2019-04-25T05:39:45.035Z,3.60
2019-04-25T05:40:45.019Z,3.10
2019-04-25T05:41:45.003Z,3.60
2019-04-25T05:42:44.990Z,3.60
2019-04-25T05:43:44.982Z,3.50
2019-04-25T05:44:44.967Z,4.00
2019-04-25T05:45:44.963Z,4.80
2019-04-25T05:46:45.329Z,4.70
2019-04-25T05:47:44.937Z,4.70
2019-04-25T05:48:44.925Z,3.70
2019-04-25T05:49:44.918Z,4.00
2019-04-25T05:50:44.900Z,5.40
2019-04-25T05:51:44.899Z,3.30
2019-04-25T05:52:45.940Z,3.60
2019-04-25T05:53:47.059Z,2.90
2019-04-25T05:54:44.860Z,3.10
2019-04-25T05:55:44.849Z,4.20
2019-04-25T05:56:44.846Z,4.40
2019-04-25T05:57:49.573Z,4.20
2019-04-25T05:58:45.815Z,4.40
2019-04-25T05:59:44.803Z,4.00
2019-04-25T06:00:44.795Z,4.10
2019-04-25T06:01:44.782Z,3.50
2019-04-25T06:02:46.183Z,3.60
2019-04-25T06:03:44.775Z,3.20
2019-04-25T06:04:44.745Z,3.10
2019-04-25T06:05:44.743Z,2.90
2019-04-25T06:06:44.731Z,2.90
2019-04-25T06:07:44.711Z,3.50
2019-04-25T06:08:44.717Z,3.10
2019-04-25T06:09:44.738Z,4.00
2019-04-25T06:10:45.231Z,3.20
2019-04-25T06:11:44.674Z,3.50
2019-04-25T06:12:44.662Z,3.00
2019-04-25T06:13:44.655Z,3.40
2019-04-25T06:14:44.635Z,3.50
2019-04-25T06:15:44.627Z,2.80
2019-04-25T06:16:44.618Z,3.10
2019-04-25T06:17:44.605Z,2.60
2019-04-25T06:18:44.597Z,3.60
2019-04-25T06:19:44.584Z,2.90
2019-04-25T06:20:44.575Z,2.50
2019-04-25T06:21:44.557Z,2.70
2019-04-25T06:22:44.552Z,2.50
2019-04-25T06:23:46.076Z,2.50
2019-04-25T06:24:44.556Z,2.80
2019-04-25T06:25:44.532Z,3.50
2019-04-25T06:26:44.510Z,5.40
2019-04-25T06:27:51.177Z,4.10
2019-04-25T06:28:53.661Z,2.90
2019-04-25T06:29:57.332Z,3.60
2019-04-25T06:30:45.462Z,3.20
2019-04-25T06:31:44.456Z,2.80
2019-04-25T06:32:44.457Z,2.60
2019-04-25T06:33:44.479Z,2.30
2019-04-25T06:34:44.479Z,2.70
2019-04-25T06:35:44.415Z,2.60
2019-04-25T06:36:44.399Z,2.60
2019-04-25T06:37:44.386Z,2.80
2019-04-25T06:38:44.413Z,2.30
2019-04-25T06:39:44.368Z,2.80
2019-04-25T06:40:44.355Z,3.20
2019-04-25T06:41:44.371Z,2.80
2019-04-25T06:42:46.611Z,3.00
2019-04-25T06:43:44.412Z,2.60
2019-04-25T06:44:44.310Z,2.40
2019-04-25T06:45:44.311Z,2.60
2019-04-25T06:46:44.294Z,2.60
2019-04-25T06:47:44.363Z,2.10
2019-04-25T06:48:45.621Z,2.40
2019-04-25T06:49:44.275Z,1.90
2019-04-25T06:50:44.249Z,2.20
2019-04-25T06:51:46.094Z,1.60
2019-04-25T06:52:44.229Z,2.20
2019-04-25T06:53:44.213Z,2.00
2019-04-25T06:54:44.207Z,1.80
2019-04-25T06:55:44.992Z,1.50
2019-04-25T06:56:44.210Z,1.90
2019-04-25T06:57:44.211Z,2.90
2019-04-25T06:58:44.166Z,1.80
2019-04-25T06:59:44.149Z,1.70
2019-04-25T07:00:57.198Z,1.60
2019-04-25T07:01:45.127Z,1.80
2019-04-25T07:02:44.112Z,1.60
2019-04-25T07:03:44.281Z,1.60
2019-04-25T07:04:45.642Z,1.40
2019-04-25T07:05:44.087Z,1.40
2019-04-25T07:06:45.469Z,1.60
2019-04-25T07:07:45.464Z,1.30
2019-04-25T07:08:44.733Z,1.40
2019-04-25T07:09:44.073Z,1.40
2019-04-25T07:10:44.632Z,1.30
2019-04-25T07:11:44.239Z,1.20
2019-04-25T07:12:51.147Z,1.50
2019-04-25T07:14:26.719Z,1.20
2019-04-25T07:15:26.946Z,1.20
2019-04-25T07:16:26.049Z,1.50
2019-04-25T07:17:25.860Z,1.40
2019-04-25T07:18:31.210Z,1.30
2019-04-25T07:19:28.263Z,1.50
2019-04-25T07:20:27.004Z,1.20
2019-04-25T07:21:25.942Z,1.30
2019-04-25T07:22:26.031Z,1.30
2019-04-25T07:23:25.550Z,1.20
2019-04-25T07:24:26.902Z,1.20
2019-04-25T07:25:27.282Z,1.00
2019-04-25T07:26:26.871Z,1.30
2019-04-25T07:27:26.588Z,1.30
2019-04-25T07:28:29.042Z,1.10
2019-04-25T07:29:26.937Z,1.00
2019-04-25T07:30:31.954Z,1.10
2019-04-25T07:31:26.866Z,0.90
2019-04-25T07:32:29.627Z,0.90
2019-04-25T07:33:27.318Z,1.00
2019-04-25T07:34:26.541Z,1.20
2019-04-25T07:35:25.418Z,0.90
2019-04-25T07:36:25.794Z,1.10
2019-04-25T07:37:26.076Z,1.00
2019-04-25T07:38:25.632Z,1.00
2019-04-25T07:39:25.623Z,0.80
2019-04-25T07:40:25.691Z,1.00
2019-04-25T07:41:26.027Z,0.90
2019-04-25T07:42:26.040Z,1.50
2019-04-25T07:43:25.868Z,1.00
2019-04-25T07:44:37.966Z,1.10
2019-04-25T07:45:27.089Z,1.20
2019-04-25T07:46:26.279Z,1.10
2019-04-25T07:47:26.037Z,0.90
2019-04-25T07:48:26.691Z,0.90
2019-04-25T07:49:26.706Z,1.20
2019-04-25T07:50:26.840Z,1.00
2019-04-25T07:51:26.736Z,1.10
2019-04-25T07:52:25.223Z,1.00
2019-04-25T07:53:28.071Z,1.00
2019-04-25T07:54:26.403Z,1.00
2019-04-25T07:55:25.182Z,1.20
2019-04-25T07:56:25.175Z,0.90
2019-04-25T07:57:25.165Z,0.80
2019-04-25T07:58:38.225Z,1.10
2019-04-25T07:59:27.388Z,0.70
2019-04-25T08:00:25.131Z,0.80
2019-04-25T08:01:25.119Z,0.70
2019-04-25T08:02:25.119Z,0.80
2019-04-25T08:03:25.094Z,0.90
2019-04-25T08:04:25.081Z,0.90
2019-04-25T08:05:25.080Z,0.80
2019-04-25T08:06:25.061Z,0.90
2019-04-25T08:07:25.044Z,2.20
2019-04-25T08:08:25.040Z,3.20
2019-04-25T08:09:25.027Z,0.70
2019-04-25T08:10:25.036Z,0.70
2019-04-25T08:11:25.004Z,0.60
2019-04-25T08:12:25.306Z,0.80
2019-04-25T08:13:24.981Z,0.80
2019-04-25T08:14:24.965Z,0.80
2019-04-25T08:15:24.953Z,4.10
2019-04-25T08:16:24.948Z,4.60
2019-04-25T08:17:24.943Z,4.00
2019-04-25T08:18:25.440Z,2.10
2019-04-25T08:19:24.926Z,1.90
2019-04-25T08:20:24.897Z,1.40
2019-04-25T08:21:24.884Z,1.20
2019-04-25T08:22:24.888Z,1.40
2019-04-25T08:23:24.865Z,1.40
2019-04-25T08:24:24.865Z,1.00
2019-04-25T08:25:24.846Z,0.80
2019-04-25T08:26:24.833Z,1.10
2019-04-25T08:27:24.820Z,1.00
2019-04-25T08:28:24.810Z,0.90
2019-04-25T08:29:25.443Z,1.00
2019-04-25T08:30:24.850Z,0.80
2019-04-25T08:31:24.792Z,0.70
2019-04-25T08:32:25.398Z,2.40
2019-04-25T08:33:24.756Z,0.80
2019-04-25T08:34:24.750Z,1.10
2019-04-25T08:35:24.744Z,0.80
2019-04-25T08:36:24.721Z,0.90
2019-04-25T08:37:24.711Z,0.90
2019-04-25T08:38:24.702Z,1.00
2019-04-25T08:39:24.689Z,0.90
2019-04-25T08:40:24.682Z,0.70
2019-04-25T08:41:24.663Z,1.10
2019-04-25T08:42:24.654Z,0.90
2019-04-25T08:43:32.556Z,1.00
2019-04-25T08:45:07.302Z,0.90
2019-04-25T08:46:07.272Z,1.10
2019-04-25T08:47:07.260Z,1.20
2019-04-25T08:48:07.258Z,4.90
2019-04-25T08:49:07.242Z,3.20
2019-04-25T08:50:07.233Z,8.80
2019-04-25T08:51:07.223Z,14.50
2019-04-25T08:52:07.208Z,1.80
2019-04-25T08:53:07.192Z,2.00
2019-04-25T08:54:07.190Z,4.80
2019-04-25T08:55:07.172Z,5.50
2019-04-25T08:56:07.172Z,2.50
2019-04-25T08:57:07.156Z,5.60
2019-04-25T08:58:07.140Z,1.20
2019-04-25T08:59:08.105Z,5.10
2019-04-25T09:00:07.158Z,4.60
2019-04-25T09:01:07.138Z,4.90
2019-04-25T09:02:07.097Z,2.50
2019-04-25T09:03:07.090Z,5.00
2019-04-25T09:04:07.076Z,2.80
2019-04-25T09:05:07.066Z,2.00
2019-04-25T09:06:07.071Z,4.40
2019-04-25T09:07:07.064Z,3.50
2019-04-25T09:08:07.034Z,3.80
2019-04-25T09:09:07.222Z,4.00
2019-04-25T09:10:07.049Z,2.90
2019-04-25T09:11:07.000Z,3.00
2019-04-25T09:12:06.994Z,3.40
2019-04-25T09:13:06.974Z,3.80
2019-04-25T09:14:06.962Z,3.20
2019-04-25T09:15:06.953Z,2.40
2019-04-25T09:16:06.948Z,2.20
2019-04-25T09:17:06.933Z,1.80
2019-04-25T09:18:07.011Z,2.60
2019-04-25T09:19:06.923Z,1.60
2019-04-25T09:20:07.006Z,1.20
2019-04-25T09:21:06.907Z,1.60
2019-04-25T09:22:06.942Z,1.30
2019-04-25T09:23:06.953Z,2.50
2019-04-25T09:24:06.890Z,1.90
2019-04-25T09:25:06.855Z,1.30
2019-04-25T09:26:06.856Z,0.90
2019-04-25T09:27:06.822Z,1.50
2019-04-25T09:28:06.819Z,1.60
2019-04-25T09:29:16.814Z,1.00
2019-04-25T09:30:07.800Z,1.10
2019-04-25T09:31:06.791Z,1.10
2019-04-25T09:32:06.767Z,1.60
2019-04-25T09:33:06.756Z,1.80
2019-04-25T09:34:06.759Z,2.60
2019-04-25T09:35:06.734Z,2.00
2019-04-25T09:36:06.933Z,2.20
2019-04-25T09:37:06.712Z,2.20
2019-04-25T09:38:06.705Z,1.90
2019-04-25T09:39:06.695Z,1.50
2019-04-25T09:40:06.677Z,2.30
2019-04-25T09:41:06.666Z,2.30
2019-04-25T09:42:06.665Z,2.30
2019-04-25T09:43:06.657Z,1.50
2019-04-25T09:44:06.638Z,1.50
2019-04-25T09:45:06.623Z,1.20
2019-04-25T09:46:06.641Z,1.00
2019-04-25T09:47:06.600Z,1.20
2019-04-25T09:48:06.593Z,1.10
2019-04-25T09:49:06.583Z,1.20
2019-04-25T09:50:06.587Z,1.40
2019-04-25T09:51:06.558Z,1.40
2019-04-25T09:52:06.555Z,1.80
2019-04-25T09:53:06.539Z,1.90
2019-04-25T09:54:06.526Z,1.80
2019-04-25T09:55:06.515Z,2.10
2019-04-25T09:56:06.501Z,1.70
2019-04-25T09:57:06.487Z,1.80
2019-04-25T09:58:06.489Z,1.50
2019-04-25T09:59:06.466Z,1.00
2019-04-25T10:00:06.455Z,1.40
2019-04-25T10:01:06.459Z,1.80
2019-04-25T10:02:06.435Z,1.30
2019-04-25T10:03:06.423Z,1.70
2019-04-25T10:04:06.409Z,1.50
2019-04-25T10:05:06.402Z,1.50
2019-04-25T10:06:06.397Z,1.80
2019-04-25T10:07:06.376Z,1.90
2019-04-25T10:08:06.363Z,1.50
2019-04-25T10:09:06.357Z,1.10
2019-04-25T10:10:06.348Z,1.60
2019-04-25T10:11:06.337Z,3.70
2019-04-25T10:12:06.332Z,2.20
2019-04-25T10:13:06.643Z,2.50
2019-04-25T10:14:06.303Z,2.00
2019-04-25T10:15:06.288Z,2.60
2019-04-25T10:16:13.420Z,2.20
2019-04-25T10:17:47.937Z,1.80
2019-04-25T10:18:47.911Z,1.70
2019-04-25T10:19:48.038Z,1.10
2019-04-25T10:20:47.892Z,1.60
2019-04-25T10:21:47.885Z,0.90
2019-04-25T10:22:47.875Z,1.10
2019-04-25T10:23:48.241Z,1.30
2019-04-25T10:24:58.886Z,1.40
2019-04-25T10:25:48.837Z,1.20
2019-04-25T10:26:48.152Z,1.10
2019-04-25T10:27:49.315Z,1.70
2019-04-25T10:28:47.805Z,1.40
2019-04-25T10:29:53.457Z,1.00
2019-04-25T10:30:49.187Z,1.00
2019-04-25T10:31:47.776Z,1.00
2019-04-25T10:32:48.045Z,1.00
2019-04-25T10:33:48.634Z,1.00
2019-04-25T10:34:47.737Z,0.70
2019-04-25T10:35:53.181Z,0.80
2019-04-25T10:36:49.004Z,0.70
2019-04-25T10:37:48.485Z,0.70
2019-04-25T10:39:01.982Z,0.80
2019-04-25T10:39:48.970Z,0.90
2019-04-25T10:40:47.673Z,1.20
2019-04-25T10:41:48.292Z,1.30
2019-04-25T10:42:49.593Z,1.20
2019-04-25T10:43:48.259Z,0.90
2019-04-25T10:44:48.339Z,0.70
2019-04-25T10:45:47.615Z,0.90
2019-04-25T10:46:48.486Z,0.90
2019-04-25T10:47:47.591Z,1.10
2019-04-25T10:48:48.045Z,0.80
2019-04-25T10:49:47.570Z,1.20
2019-04-25T10:50:48.429Z,1.20
2019-04-25T10:51:48.004Z,0.80
2019-04-25T10:52:48.368Z,1.10
2019-04-25T10:53:47.530Z,0.90
2019-04-25T10:54:47.942Z,1.20
2019-04-25T10:55:47.637Z,1.30
2019-04-25T10:56:48.377Z,2.00
2019-04-25T10:57:48.346Z,0.80
2019-04-25T10:58:47.992Z,0.80
2019-04-25T11:00:00.419Z,1.10
2019-04-25T11:00:48.679Z,0.60
2019-04-25T11:01:47.436Z,1.00
2019-04-25T11:02:47.526Z,1.00
2019-04-25T11:03:48.361Z,1.30
2019-04-25T11:04:48.833Z,1.20
2019-04-25T11:05:47.596Z,1.30
2019-04-25T11:06:47.377Z,1.80
2019-04-25T11:07:47.370Z,1.00
2019-04-25T11:08:47.362Z,1.30
2019-04-25T11:09:48.026Z,1.40
2019-04-25T11:10:49.016Z,1.40
2019-04-25T11:11:48.140Z,1.50
2019-04-25T11:12:47.339Z,1.30
2019-04-25T11:13:47.305Z,1.00
2019-04-25T11:14:47.293Z,1.20
2019-04-25T11:15:47.286Z,2.50
2019-04-25T11:16:48.303Z,1.50
2019-04-25T11:17:47.975Z,1.80
2019-04-25T11:18:47.619Z,1.40
2019-04-25T11:19:47.242Z,1.50
2019-04-25T11:20:47.226Z,1.40
2019-04-25T11:21:47.740Z,1.30
2019-04-25T11:22:47.283Z,0.70
2019-04-25T11:23:48.794Z,0.70
2019-04-25T11:24:47.187Z,0.80
2019-04-25T11:25:47.319Z,0.90
2019-04-25T11:26:50.133Z,0.90
2019-04-25T11:27:49.562Z,0.90
2019-04-25T11:28:47.140Z,1.10
2019-04-25T11:29:47.180Z,0.90
2019-04-25T11:30:47.119Z,1.10
2019-04-25T11:31:47.350Z,1.10
2019-04-25T11:32:47.938Z,4.70
2019-04-25T11:33:47.089Z,2.10
2019-04-25T11:34:47.315Z,2.00
2019-04-25T11:35:48.101Z,2.00
2019-04-25T11:36:47.055Z,1.00
2019-04-25T11:37:48.379Z,0.90
2019-04-25T11:38:47.400Z,1.10
2019-04-25T11:39:47.295Z,2.10
2019-04-25T11:40:49.327Z,1.20
2019-04-25T11:41:48.240Z,1.20
2019-04-25T11:42:47.139Z,1.10
2019-04-25T11:43:46.984Z,0.90
2019-04-25T11:44:46.965Z,4.00
2019-04-25T11:45:47.399Z,2.20
2019-04-25T11:46:46.950Z,2.70
2019-04-25T11:47:55.262Z,2.90
2019-04-25T11:49:28.595Z,4.40
2019-04-25T11:50:28.568Z,7.80
2019-04-25T11:52:10.212Z,1.80
2019-04-25T11:53:10.205Z,1.10
2019-04-25T11:54:10.190Z,2.90
2019-04-25T11:55:10.191Z,2.40
2019-04-25T11:56:10.176Z,3.80
2019-04-25T11:57:10.161Z,3.90
2019-04-25T11:58:10.148Z,2.80
2019-04-25T11:59:10.137Z,3.40
2019-04-25T12:00:21.599Z,2.40
2019-04-25T12:01:11.114Z,2.20
2019-04-25T12:02:10.107Z,2.20
2019-04-25T12:03:10.100Z,1.90
2019-04-25T12:04:10.087Z,1.70
2019-04-25T12:05:10.075Z,1.50
2019-04-25T12:06:11.300Z,1.70
2019-04-25T12:07:10.048Z,1.80
2019-04-25T12:08:10.044Z,1.20
2019-04-25T12:09:10.027Z,0.70
2019-04-25T12:10:10.021Z,1.60
2019-04-25T12:11:10.021Z,1.00
2019-04-25T12:12:09.993Z,0.60
2019-04-25T12:13:09.986Z,1.00
2019-04-25T12:14:09.979Z,1.10
2019-04-25T12:15:09.971Z,1.20
2019-04-25T12:16:09.954Z,0.80
2019-04-25T12:17:09.943Z,0.90
2019-04-25T12:18:09.933Z,0.80
2019-04-25T12:19:09.922Z,0.90
2019-04-25T12:20:09.914Z,2.30
2019-04-25T12:21:09.912Z,1.70
2019-04-25T12:22:09.892Z,1.10
2019-04-25T12:23:10.561Z,2.00
2019-04-25T12:24:09.864Z,1.40
2019-04-25T12:25:09.857Z,1.70
2019-04-25T12:26:09.849Z,2.60
2019-04-25T12:27:09.839Z,1.80
2019-04-25T12:28:09.830Z,5.40
2019-04-25T12:29:09.820Z,3.10
2019-04-25T12:30:09.807Z,4.00
2019-04-25T12:31:09.803Z,3.80
2019-04-25T12:32:09.791Z,1.70
2019-04-25T12:33:19.163Z,2.30
2019-04-25T12:34:10.758Z,1.90
2019-04-25T12:35:09.749Z,1.50
2019-04-25T12:36:09.738Z,1.50
2019-04-25T12:37:09.750Z,1.40
2019-04-25T12:38:09.724Z,1.40
2019-04-25T12:39:09.704Z,1.20
2019-04-25T12:40:09.690Z,1.10
2019-04-25T12:41:09.689Z,0.70
2019-04-25T12:42:09.679Z,1.40
2019-04-25T12:43:09.670Z,1.10
2019-04-25T12:44:09.670Z,0.80
2019-04-25T12:45:09.646Z,0.60
2019-04-25T12:46:09.635Z,0.70
2019-04-25T12:47:09.618Z,0.70
2019-04-25T12:48:09.608Z,0.60
2019-04-25T12:49:09.601Z,0.70
2019-04-25T12:50:09.582Z,0.90
2019-04-25T12:51:09.580Z,0.90
2019-04-25T12:52:09.562Z,0.60
2019-04-25T12:53:09.662Z,1.00
2019-04-25T12:54:09.541Z,0.80
2019-04-25T12:55:09.530Z,0.60
2019-04-25T12:56:09.527Z,0.60
2019-04-25T12:57:09.538Z,0.60
2019-04-25T12:58:09.498Z,0.50
2019-04-25T12:59:09.495Z,0.90
2019-04-25T13:00:09.477Z,0.80
2019-04-25T13:01:09.472Z,0.70
2019-04-25T13:02:09.453Z,0.40
2019-04-25T13:03:09.449Z,0.50
2019-04-25T13:04:09.437Z,0.60
2019-04-25T13:05:09.427Z,0.70
2019-04-25T13:06:09.410Z,0.40
2019-04-25T13:07:09.399Z,0.70
2019-04-25T13:08:09.395Z,0.50
2019-04-25T13:09:09.376Z,0.60
2019-04-25T13:10:09.384Z,0.60
2019-04-25T13:11:10.503Z,0.90
2019-04-25T13:12:09.352Z,0.50
2019-04-25T13:13:09.337Z,0.60
2019-04-25T13:14:09.320Z,0.60
2019-04-25T13:15:09.837Z,0.50
2019-04-25T13:16:09.304Z,0.70
2019-04-25T13:17:09.599Z,0.60
2019-04-25T13:18:16.448Z,0.80
2019-04-25T13:19:51.436Z,1.20
2019-04-25T13:20:51.386Z,1.00
2019-04-25T13:21:51.368Z,0.80
2019-04-25T13:22:52.861Z,0.80
2019-04-25T13:23:51.343Z,1.00